Time;durP1;ratioP1;P1;durP2;ratioP2;P2;SDS_P1;SDS_P2;PMS_P1;PMS_P2;Temp;Humidity;BMP_temperature;BMP_pressure;BME280_temperature;BME280_humidity;BME280_pressure;Samples;Min_cycle;Max_cycle;Signal;HPM_P1;HPM_P2
2022/03/15 00:00:03;;;;;;;9.68;3.38;;;;;;;1.14;100.00;101848.47;5031482;28;20037;-57
2022/03/15 00:02:28;;;;;;;9.45;3.42;;;;;;;1.14;100.00;101843.22;5032824;28;20071;-61
2022/03/15 00:04:55;;;;;;;7.82;2.40;;;;;;;1.12;100.00;101852.94;5028436;28;20116;-56
2022/03/15 00:07:21;;;;;;;7.10;2.92;;;;;;;1.09;100.00;101841.72;5028895;28;20114;-58
2022/03/15 00:09:46;;;;;;;9.23;3.95;;;;;;;1.08;100.00;101844.44;5028251;28;20033;-58
2022/03/15 00:12:13;;;;;;;10.18;4.13;;;;;;;1.07;100.00;101842.75;5030408;28;20147;-58
2022/03/15 00:14:38;;;;;;;5.97;3.03;;;;;;;1.04;100.00;101838.56;5031612;28;20620;-57
2022/03/15 00:17:05;;;;;;;7.78;3.45;;;;;;;1.04;100.00;101833.34;5028861;28;20137;-58
2022/03/15 00:19:33;;;;;;;11.60;4.18;;;;;;;1.08;100.00;101824.41;5031615;28;20032;-59
2022/03/15 00:21:59;;;;;;;4.35;3.20;;;;;;;1.12;100.00;101824.19;5030521;28;20029;-60
2022/03/15 00:24:25;;;;;;;6.03;3.13;;;;;;;1.09;100.00;101823.44;5029892;28;20035;-59
2022/03/15 00:26:51;;;;;;;3.90;2.83;;;;;;;1.08;100.00;101823.53;5031396;28;20473;-57
2022/03/15 00:29:17;;;;;;;7.70;3.42;;;;;;;1.07;100.00;101821.88;5030932;28;20051;-55
2022/03/15 00:31:44;;;;;;;6.28;2.95;;;;;;;1.06;100.00;101823.66;5029171;28;20031;-56
2022/03/15 00:34:10;;;;;;;4.47;2.35;;;;;;;1.04;100.00;101819.44;5027457;28;20118;-57
2022/03/15 00:36:37;;;;;;;6.40;2.75;;;;;;;1.05;100.00;101810.66;5029909;28;20029;-58
2022/03/15 00:39:04;;;;;;;9.23;3.25;;;;;;;1.07;100.00;101814.03;5027194;28;20034;-61
2022/03/15 00:41:29;;;;;;;9.07;3.85;;;;;;;1.06;100.00;101815.81;5032778;28;20028;-60
2022/03/15 00:43:54;;;;;;;5.88;2.85;;;;;;;1.07;100.00;101812.25;5031595;28;20335;-53
2022/03/15 00:46:20;;;;;;;5.57;3.03;;;;;;;1.08;100.00;101811.34;5029709;28;20047;-57
2022/03/15 00:48:45;;;;;;;5.60;2.88;;;;;;;1.10;100.00;101808.59;5029898;28;20057;-58
2022/03/15 00:51:10;;;;;;;4.07;2.53;;;;;;;1.12;100.00;101805.91;5031757;28;20029;-57
2022/03/15 00:53:36;;;;;;;5.05;2.90;;;;;;;1.15;100.00;101806.53;5029969;28;20102;-56
2022/03/15 00:56:01;;;;;;;5.90;3.08;;;;;;;1.22;100.00;101817.44;5026341;28;20159;-58
2022/03/15 00:58:27;;;;;;;7.30;2.97;;;;;;;1.24;100.00;101807.72;5032099;28;20165;-58
2022/03/15 01:00:52;;;;;;;5.72;2.50;;;;;;;1.25;100.00;101806.81;5033006;28;20108;-57
2022/03/15 01:03:17;;;;;;;2.50;2.30;;;;;;;1.28;100.00;101803.97;5031209;28;20041;-59
2022/03/15 01:05:43;;;;;;;9.05;3.08;;;;;;;1.31;100.00;101806.41;5027218;28;20056;-56
2022/03/15 01:08:09;;;;;;;16.60;4.03;;;;;;;1.33;100.00;101809.75;5029781;28;20037;-58
2022/03/15 01:10:34;;;;;;;9.50;3.30;;;;;;;1.37;100.00;101806.03;5030210;28;20099;-58
2022/03/15 01:13:00;;;;;;;6.93;2.83;;;;;;;1.41;100.00;101817.09;5028158;28;20074;-55
2022/03/15 01:15:25;;;;;;;6.53;2.53;;;;;;;1.41;100.00;101822.31;5028328;28;20021;-58
2022/03/15 01:17:52;;;;;;;4.80;2.75;;;;;;;1.39;100.00;101814.56;5029742;28;20552;-58
2022/03/15 01:20:17;;;;;;;5.57;3.22;;;;;;;1.41;100.00;101817.94;5027259;28;20033;-59
2022/03/15 01:22:42;;;;;;;8.85;2.72;;;;;;;1.39;100.00;101811.97;5030135;28;20037;-56
2022/03/15 01:25:09;;;;;;;7.80;3.08;;;;;;;1.38;100.00;101810.31;5032875;28;20036;-59
2022/03/15 01:27:34;;;;;;;4.55;2.00;;;;;;;1.35;100.00;101805.28;5031426;28;20171;-54
2022/03/15 01:30:00;;;;;;;3.15;2.17;;;;;;;1.36;100.00;101798.25;5025336;28;20116;-55
2022/03/15 01:32:26;;;;;;;2.47;1.85;;;;;;;1.36;100.00;101801.72;5023469;28;20120;-56
2022/03/15 01:34:51;;;;;;;10.25;2.28;;;;;;;1.40;100.00;101799.75;5030528;28;20140;-59
2022/03/15 01:37:17;;;;;;;5.25;2.78;;;;;;;1.36;100.00;101809.56;5029503;28;20083;-56
2022/03/15 01:39:42;;;;;;;3.13;2.33;;;;;;;1.34;100.00;101800.13;5027678;28;20319;-61
2022/03/15 01:42:08;;;;;;;5.53;2.50;;;;;;;1.30;100.00;101809.97;5028518;28;20038;-60
2022/03/15 01:44:33;;;;;;;2.50;2.22;;;;;;;1.30;100.00;101804.72;5031958;28;20033;-58
2022/03/15 01:46:59;;;;;;;5.20;2.97;;;;;;;1.30;100.00;101802.13;5026600;28;20060;-58
2022/03/15 01:49:25;;;;;;;4.47;2.38;;;;;;;1.26;100.00;101800.63;5029634;28;20033;-55
2022/03/15 01:51:51;;;;;;;5.28;2.58;;;;;;;1.18;100.00;101795.06;5031167;28;20057;-59
2022/03/15 01:54:17;;;;;;;6.85;2.50;;;;;;;1.14;100.00;101798.81;5032917;28;20437;-58
2022/03/15 01:56:43;;;;;;;2.45;2.25;;;;;;;1.05;100.00;101793.22;5032044;28;20032;-57
2022/03/15 01:59:11;;;;;;;6.05;2.75;;;;;;;1.00;100.00;101776.16;5024170;28;20467;-55
2022/03/15 02:01:37;;;;;;;5.88;2.47;;;;;;;0.98;100.00;101768.44;5033732;28;20030;-58
2022/03/15 02:04:03;;;;;;;4.47;2.53;;;;;;;0.98;100.00;101757.13;5026426;28;20074;-60
2022/03/15 02:06:28;;;;;;;5.30;2.95;;;;;;;0.93;100.00;101754.84;5033991;28;20490;-60
2022/03/15 02:08:53;;;;;;;4.60;2.30;;;;;;;0.88;100.00;101751.69;5038612;28;20442;-60
2022/03/15 02:11:19;;;;;;;2.08;1.98;;;;;;;0.80;100.00;101749.53;5036661;28;20476;-58
2022/03/15 02:13:45;;;;;;;4.47;2.28;;;;;;;0.81;100.00;101750.38;5029592;28;20040;-59
2022/03/15 02:16:10;;;;;;;4.88;2.45;;;;;;;0.83;100.00;101744.13;5031183;28;20033;-57
2022/03/15 02:18:36;;;;;;;2.30;2.10;;;;;;;0.85;100.00;101739.66;5041875;28;20083;-58
2022/03/15 02:21:01;;;;;;;1.95;1.52;;;;;;;0.90;100.00;101741.13;5027194;28;20029;-57
2022/03/15 02:23:26;;;;;;;4.80;2.58;;;;;;;0.95;100.00;101732.03;5028381;28;20559;-59
2022/03/15 02:25:52;;;;;;;3.92;2.25;;;;;;;1.01;100.00;101720.41;5035154;28;20481;-56
2022/03/15 02:28:17;;;;;;;5.70;2.78;;;;;;;1.02;100.00;101728.13;5038323;28;20033;-59
2022/03/15 02:30:42;;;;;;;3.97;2.47;;;;;;;1.00;100.00;101716.91;5031831;28;20030;-56
2022/03/15 02:33:08;;;;;;;4.78;2.55;;;;;;;0.98;100.00;101717.94;5026363;28;20112;-55
2022/03/15 02:35:34;;;;;;;3.53;2.10;;;;;;;0.97;100.00;101714.50;5033496;28;20040;-59
2022/03/15 02:37:59;;;;;;;2.75;1.73;;;;;;;0.97;100.00;101714.50;5033293;28;20033;-58
2022/03/15 02:40:25;;;;;;;14.85;2.92;;;;;;;0.98;100.00;101707.50;5038417;28;20064;-59
2022/03/15 02:42:51;;;;;;;5.53;2.08;;;;;;;1.01;100.00;101699.50;5043610;28;20085;-57
2022/03/15 02:45:16;;;;;;;4.80;2.03;;;;;;;1.05;100.00;101701.78;5038682;28;20552;-54
2022/03/15 02:47:43;;;;;;;4.45;1.50;;;;;;;1.08;100.00;101693.78;5036678;28;20029;-57
2022/03/15 02:50:08;;;;;;;2.00;1.45;;;;;;;1.17;100.00;101688.88;5039635;28;20028;-56
2022/03/15 02:52:34;;;;;;;2.65;1.95;;;;;;;1.24;100.00;101684.91;5039736;28;20363;-57
2022/03/15 02:54:59;;;;;;;2.17;1.90;;;;;;;1.34;100.00;101685.16;5030227;28;20057;-57
2022/03/15 02:57:25;;;;;;;2.70;2.25;;;;;;;1.38;100.00;101686.63;5031369;28;20489;-60
2022/03/15 02:59:51;;;;;;;3.63;1.92;;;;;;;1.40;100.00;101682.16;5036499;28;20024;-59
2022/03/15 03:02:17;;;;;;;3.00;2.22;;;;;;;1.40;100.00;101680.38;5040076;28;20037;-57
2022/03/15 03:04:43;;;;;;;5.13;2.45;;;;;;;1.43;100.00;101674.94;5030146;28;20056;-60
2022/03/15 03:07:09;;;;;;;8.57;3.05;;;;;;;1.49;100.00;101682.34;5025240;28;20029;-56
2022/03/15 03:09:34;;;;;;;4.60;3.72;;;;;;;1.55;100.00;101678.50;5034507;28;20043;-56
2022/03/15 03:12:00;;;;;;;4.05;3.65;;;;;;;1.57;100.00;101666.16;5030235;28;20037;-58
2022/03/15 03:14:25;;;;;;;7.03;2.70;;;;;;;1.57;100.00;101673.16;5034928;28;20021;-58
2022/03/15 03:16:51;;;;;;;5.43;2.55;;;;;;;1.56;100.00;101672.31;5036885;28;20033;-56
2022/03/15 03:19:17;;;;;;;5.53;3.22;;;;;;;1.57;100.00;101673.16;5032370;28;20812;-53
2022/03/15 03:21:43;;;;;;;3.67;1.75;;;;;;;1.59;100.00;101661.66;5025456;28;20649;-58
2022/03/15 03:24:09;;;;;;;4.38;2.70;;;;;;;1.63;100.00;101659.69;5032111;28;20036;-61
2022/03/15 03:26:37;;;;;;;6.68;2.35;;;;;;;1.65;100.00;101649.94;5041836;28;20033;-58
2022/03/15 03:29:06;;;;;;;6.43;3.08;;;;;;;1.67;100.00;101653.28;5034981;28;20033;-57
2022/03/15 03:31:32;;;;;;;3.08;2.25;;;;;;;1.66;100.00;101636.78;5035957;28;20033;-57
2022/03/15 03:33:58;;;;;;;7.30;2.55;;;;;;;1.67;100.00;101633.22;5023817;28;20081;-57
2022/03/15 03:36:24;;;;;;;6.22;2.92;;;;;;;1.69;100.00;101633.13;5030946;28;20558;-60
2022/03/15 03:38:50;;;;;;;4.93;2.80;;;;;;;1.73;100.00;101629.38;5029265;28;20064;-56
2022/03/15 03:41:16;;;;;;;3.72;3.15;;;;;;;1.75;100.00;101627.44;5031079;28;20052;-57
2022/03/15 03:43:41;;;;;;;3.85;3.05;;;;;;;1.76;100.00;101631.75;5026404;28;20028;-59
2022/03/15 03:46:06;;;;;;;4.65;2.58;;;;;;;1.75;100.00;101630.06;5024161;28;20061;-59
2022/03/15 03:48:32;;;;;;;6.32;2.90;;;;;;;1.76;100.00;101618.69;5034297;28;20371;-56
2022/03/15 03:50:58;;;;;;;3.25;2.88;;;;;;;1.81;100.00;101618.34;5035887;28;20397;-53
2022/03/15 03:53:24;;;;;;;3.65;2.90;;;;;;;1.80;100.00;101614.91;5027255;28;20029;-56
2022/03/15 03:55:50;;;;;;;4.90;3.00;;;;;;;1.80;100.00;101620.13;5035847;28;20039;-58
2022/03/15 03:58:16;;;;;;;7.72;2.92;;;;;;;1.80;100.00;101621.91;5034920;28;20033;-55
2022/03/15 04:00:41;;;;;;;12.95;2.70;;;;;;;1.79;100.00;101623.69;5032360;28;20600;-59
2022/03/15 04:03:07;;;;;;;5.90;2.88;;;;;;;1.78;100.00;101618.56;5027025;28;20522;-58
2022/03/15 04:05:35;;;;;;;5.40;2.63;;;;;;;1.78;100.00;101615.94;5032404;28;20025;-58
2022/03/15 04:08:00;;;;;;;6.32;3.03;;;;;;;1.78;100.00;101616.78;5031474;28;20045;-60
2022/03/15 04:10:29;;;;;;;4.15;3.58;;;;;;;1.76;100.00;101616.06;5031884;28;20113;-61
2022/03/15 04:12:55;;;;;;;2.72;1.85;;;;;;;1.72;100.00;101609.38;5023575;28;20451;-59
2022/03/15 04:15:21;;;;;;;3.78;2.55;;;;;;;1.69;100.00;101606.97;5028712;28;20474;-55
2022/03/15 04:17:47;;;;;;;7.20;2.40;;;;;;;1.67;100.00;101614.91;5035000;28;20391;-59
2022/03/15 04:20:13;;;;;;;2.42;2.22;;;;;;;1.71;100.00;101605.91;5026641;28;20032;-60
2022/03/15 04:22:38;;;;;;;4.95;3.17;;;;;;;1.77;100.00;101609.88;5026822;28;20029;-58
2022/03/15 04:25:04;;;;;;;7.55;2.72;;;;;;;1.76;100.00;101608.22;5032009;28;20071;-58
2022/03/15 04:27:29;;;;;;;3.17;2.45;;;;;;;1.71;100.00;101603.31;5034291;28;20033;-58
2022/03/15 04:29:55;;;;;;;3.47;2.25;;;;;;;1.67;100.00;101606.22;5035518;28;20031;-56
2022/03/15 04:32:20;;;;;;;5.60;2.90;;;;;;;1.67;100.00;101601.00;5024897;28;20283;-61
2022/03/15 04:34:46;;;;;;;3.50;2.20;;;;;;;1.66;100.00;101589.72;5024725;28;20589;-56
2022/03/15 04:37:12;;;;;;;3.30;2.65;;;;;;;1.67;100.00;101596.59;5032146;28;20112;-56
2022/03/15 04:39:37;;;;;;;8.20;3.75;;;;;;;1.68;100.00;101589.63;5032311;28;20453;-59
2022/03/15 04:42:05;;;;;;;9.90;3.53;;;;;;;1.68;100.00;101587.84;5030629;28;20042;-54
2022/03/15 04:44:30;;;;;;;9.20;4.28;;;;;;;1.66;100.00;101584.50;5028363;28;20149;-58
2022/03/15 04:46:56;;;;;;;4.72;2.70;;;;;;;1.65;100.00;101582.81;5031167;28;20132;-57
2022/03/15 04:49:21;;;;;;;7.03;2.78;;;;;;;1.61;100.00;101585.75;5029324;28;20025;-59
2022/03/15 04:51:47;;;;;;;5.95;3.10;;;;;;;1.60;100.00;101581.44;5032686;28;20038;-56
2022/03/15 04:54:13;;;;;;;8.15;2.95;;;;;;;1.63;100.00;101582.09;5023724;28;20037;-58
2022/03/15 04:56:38;;;;;;;3.58;2.30;;;;;;;1.66;100.00;101589.72;5031699;28;20309;-56
2022/03/15 04:59:04;;;;;;;8.35;3.92;;;;;;;1.71;100.00;101584.19;5032897;28;20067;-56
2022/03/15 05:01:29;;;;;;;7.88;3.17;;;;;;;1.74;100.00;101583.94;5032585;28;20522;-60
2022/03/15 05:03:55;;;;;;;7.45;4.13;;;;;;;1.78;100.00;101585.41;5026476;28;20033;-55
2022/03/15 05:06:20;;;;;;;6.15;3.65;;;;;;;1.77;100.00;101578.50;5031505;28;20419;-57
2022/03/15 05:08:45;;;;;;;6.18;3.42;;;;;;;1.76;100.00;101576.84;5026924;28;20581;-56
2022/03/15 05:11:11;;;;;;;6.82;3.35;;;;;;;1.78;100.00;101584.56;5037702;28;20465;-56
2022/03/15 05:13:39;;;;;;;5.85;3.72;;;;;;;1.79;100.00;101581.84;5037613;28;20055;-58
2022/03/15 05:16:06;;;;;;;7.95;3.22;;;;;;;1.77;100.00;101583.75;5031850;28;20040;-60
2022/03/15 05:18:31;;;;;;;5.68;4.65;;;;;;;1.76;100.00;101576.84;5029125;28;20022;-55
2022/03/15 05:20:56;;;;;;;5.93;3.05;;;;;;;1.73;100.00;101575.28;5039818;28;20500;-60
2022/03/15 05:23:22;;;;;;;7.68;3.22;;;;;;;1.75;100.00;101583.00;5035891;28;20037;-60
2022/03/15 05:25:47;;;;;;;5.45;2.78;;;;;;;1.75;100.00;101583.81;5033408;28;20087;-59
2022/03/15 05:28:12;;;;;;;9.60;4.07;;;;;;;1.75;100.00;101585.63;5029200;28;20021;-59
2022/03/15 05:30:38;;;;;;;4.25;2.65;;;;;;;1.74;100.00;101583.94;5029651;28;20036;-58
2022/03/15 05:33:04;;;;;;;7.53;3.60;;;;;;;1.77;100.00;101585.53;5033074;28;20491;-56
2022/03/15 05:35:30;;;;;;;5.68;3.95;;;;;;;1.78;100.00;101580.16;5036240;28;20363;-56
2022/03/15 05:37:55;;;;;;;5.95;3.70;;;;;;;1.79;100.00;101588.88;5037007;28;20040;-57
2022/03/15 05:40:21;;;;;;;3.97;2.83;;;;;;;1.77;100.00;101583.75;5028382;28;20471;-59
2022/03/15 05:42:46;;;;;;;8.02;3.63;;;;;;;1.74;100.00;101583.94;5028861;28;20048;-59
2022/03/15 05:45:13;;;;;;;4.05;2.60;;;;;;;1.72;100.00;101586.66;5030209;28;20124;-59
2022/03/15 05:47:38;;;;;;;6.35;3.70;;;;;;;1.70;100.00;101585.97;5037586;28;20044;-58
2022/03/15 05:50:05;;;;;;;5.88;2.53;;;;;;;1.74;100.00;101583.94;5037610;28;20021;-59
2022/03/15 05:52:30;;;;;;;3.67;2.40;;;;;;;1.82;100.00;101580.81;5037842;28;20043;-59
2022/03/15 05:54:56;;;;;;;7.95;4.97;;;;;;;1.92;100.00;101582.66;5030165;28;20033;-59
2022/03/15 05:57:21;;;;;;;6.85;3.65;;;;;;;2.00;100.00;101584.75;5037475;28;20040;-57
2022/03/15 05:59:46;;;;;;;6.20;3.88;;;;;;;2.04;100.00;101582.72;5029424;28;20409;-57
2022/03/15 06:02:12;;;;;;;6.18;4.40;;;;;;;2.04;100.00;101594.06;5031038;28;20448;-61
2022/03/15 06:04:37;;;;;;;3.80;2.88;;;;;;;2.02;100.00;101585.47;5032406;28;20025;-57
2022/03/15 06:07:03;;;;;;;8.75;4.50;;;;;;;2.01;100.00;101585.56;5036406;28;20036;-55
2022/03/15 06:09:29;;;;;;;6.28;3.53;;;;;;;1.99;100.00;101588.31;5035233;28;20032;-55
2022/03/15 06:11:54;;;;;;;8.73;3.78;;;;;;;2.00;100.00;101584.75;5036171;28;20033;-59
2022/03/15 06:14:20;;;;;;;5.05;3.70;;;;;;;2.03;100.00;101581.06;5038590;28;20103;-57
2022/03/15 06:16:46;;;;;;;16.33;6.80;;;;;;;2.07;100.00;101582.53;5030001;28;20024;-60
2022/03/15 06:19:11;;;;;;;10.15;3.53;;;;;;;2.08;100.00;101577.19;5030667;28;20437;-54
2022/03/15 06:21:37;;;;;;;6.05;3.75;;;;;;;2.12;100.00;101588.28;5032090;28;20453;-56
2022/03/15 06:24:02;;;;;;;6.00;3.50;;;;;;;2.13;100.00;101582.91;5032102;28;20387;-55
2022/03/15 06:26:28;;;;;;;7.05;3.72;;;;;;;2.14;100.00;101584.63;5029499;28;20254;-60
2022/03/15 06:28:54;;;;;;;5.38;4.22;;;;;;;2.13;100.00;101582.09;5031505;28;20033;-59
2022/03/15 06:31:20;;;;;;;11.93;3.80;;;;;;;2.15;100.00;101585.44;5030293;28;20028;-58
2022/03/15 06:33:46;;;;;;;7.57;4.07;;;;;;;2.16;100.00;101584.50;5029455;28;20052;-57
2022/03/15 06:36:15;;;;;;;4.72;3.38;;;;;;;2.13;100.00;101584.72;5036602;28;20056;-55
2022/03/15 06:38:41;;;;;;;10.02;4.30;;;;;;;2.13;100.00;101584.72;5030606;28;20029;-59
2022/03/15 06:41:10;;;;;;;5.80;3.05;;;;;;;2.14;100.00;101578.53;5035392;28;20456;-56
2022/03/15 06:43:36;;;;;;;9.68;3.30;;;;;;;2.17;100.00;101575.72;5031619;28;20064;-56
2022/03/15 06:46:01;;;;;;;9.43;4.18;;;;;;;2.22;100.00;101580.59;5029116;28;20464;-57
2022/03/15 06:48:27;;;;;;;11.15;4.70;;;;;;;2.26;100.00;101585.50;5031808;28;20132;-55
2022/03/15 06:50:53;;;;;;;8.40;4.80;;;;;;;2.28;100.00;101583.63;5032341;28;20481;-60
2022/03/15 06:53:19;;;;;;;7.90;4.18;;;;;;;2.26;100.00;101585.50;5027194;28;20075;-58
2022/03/15 06:55:44;;;;;;;10.85;3.65;;;;;;;2.22;100.00;101586.69;5032258;28;20439;-61
2022/03/15 06:58:10;;;;;;;12.48;3.92;;;;;;;2.17;100.00;101588.78;5028774;28;20041;-58
2022/03/15 07:00:35;;;;;;;6.78;4.05;;;;;;;2.15;100.00;101590.69;5033240;28;20039;-57
2022/03/15 07:03:01;;;;;;;9.57;3.42;;;;;;;2.13;100.00;101585.53;5031263;28;20043;-59
2022/03/15 07:05:26;;;;;;;5.95;4.10;;;;;;;2.14;100.00;101586.38;5031892;28;20055;-61
2022/03/15 07:07:51;;;;;;;8.73;4.95;;;;;;;2.12;100.00;101588.28;5035692;28;20323;-57
2022/03/15 07:10:19;;;;;;;5.82;4.20;;;;;;;2.09;100.00;101578.00;5029091;28;20037;-58
2022/03/15 07:12:44;;;;;;;8.50;3.88;;;;;;;2.01;100.00;101575.94;5036615;28;20428;-60
2022/03/15 07:15:11;;;;;;;5.80;3.17;;;;;;;1.91;100.00;101586.25;5036547;28;20401;-57
2022/03/15 07:17:36;;;;;;;4.07;3.00;;;;;;;1.81;100.00;101582.59;5032558;28;20025;-59
2022/03/15 07:20:03;;;;;;;5.57;3.50;;;;;;;1.80;100.00;101575.66;5038829;28;20097;-58
2022/03/15 07:22:28;;;;;;;3.72;2.58;;;;;;;1.83;100.00;101579.84;5041404;28;20071;-57
2022/03/15 07:24:54;;;;;;;13.05;5.15;;;;;;;1.85;100.00;101586.66;5033939;28;20112;-57
2022/03/15 07:27:20;;;;;;;5.97;3.95;;;;;;;1.85;100.00;101578.81;5033604;28;20033;-58
2022/03/15 07:29:45;;;;;;;6.25;3.22;;;;;;;1.90;100.00;101583.72;5032146;28;20120;-56
2022/03/15 07:32:11;;;;;;;5.82;3.92;;;;;;;1.97;100.00;101582.34;5037155;28;20040;-58
2022/03/15 07:34:36;;;;;;;9.95;5.63;;;;;;;2.12;100.00;101588.28;5029142;28;20032;-60
2022/03/15 07:37:03;;;;;;;7.28;3.88;;;;;;;2.21;100.00;101584.16;5030834;28;20616;-59
2022/03/15 07:39:28;;;;;;;8.40;3.33;;;;;;;2.24;100.00;101579.53;5038112;28;20381;-60
2022/03/15 07:41:54;;;;;;;8.70;4.00;;;;;;;2.34;100.00;101577.94;5033765;28;20035;-58
2022/03/15 07:44:20;;;;;;;14.77;5.20;;;;;;;2.52;100.00;101574.94;5034277;28;20040;-62
2022/03/15 07:46:48;;;;;;;9.52;4.47;;;;;;;2.70;100.00;101572.75;5036517;28;20029;-57
2022/03/15 07:49:22;;;;;;;10.45;5.13;;;;;;;2.86;100.00;101573.28;5029675;28;20040;-59
2022/03/15 07:51:49;;;;;;;9.30;5.93;;;;;;;3.08;100.00;101567.28;5035016;28;20057;-59
2022/03/15 07:54:15;;;;;;;6.95;4.93;;;;;;;3.28;100.00;101573.63;5034504;28;20041;-57
2022/03/15 07:56:41;;;;;;;15.55;6.60;;;;;;;3.41;100.00;101569.13;5032420;28;20033;-53
2022/03/15 07:59:06;;;;;;;10.77;5.00;;;;;;;3.50;100.00;101571.00;5030649;28;20132;-59
2022/03/15 08:01:31;;;;;;;11.35;6.18;;;;;;;3.71;100.00;101560.66;5030186;28;20025;-55
2022/03/15 08:03:57;;;;;;;10.15;6.10;;;;;;;3.88;100.00;101561.97;5033932;28;20148;-60
2022/03/15 08:06:22;;;;;;;15.13;6.53;;;;;;;4.01;100.00;101569.69;5029204;28;20065;-61
2022/03/15 08:08:48;;;;;;;9.68;5.75;;;;;;;4.12;100.00;101559.16;5033219;28;20094;-61
2022/03/15 08:11:14;;;;;;;10.52;4.75;;;;;;;4.29;100.00;101560.44;5032596;28;20139;-58
2022/03/15 08:13:40;;;;;;;13.48;6.43;;;;;;;4.46;100.00;101559.06;5028534;28;20025;-58
2022/03/15 08:16:05;;;;;;;10.85;5.97;;;;;;;4.55;100.00;101562.75;5030023;28;20033;-59
2022/03/15 08:18:32;;;;;;;11.93;5.40;;;;;;;4.72;100.00;101561.38;5032290;28;20025;-59
2022/03/15 08:20:59;;;;;;;11.32;6.95;;;;;;;4.88;100.00;101553.03;5027177;28;20041;-60
2022/03/15 08:23:27;;;;;;;16.63;5.80;;;;;;;5.07;100.00;101544.47;5028812;28;20127;-59
2022/03/15 08:25:55;;;;;;;10.43;6.78;;;;;;;5.27;100.00;101542.75;5031091;28;20116;-62
2022/03/15 08:28:21;;;;;;;11.77;6.35;;;;;;;5.42;100.00;101539.69;5030346;28;20033;-57
2022/03/15 08:30:46;;;;;;;16.67;6.80;;;;;;;5.64;100.00;101527.31;5035516;28;20033;-56
2022/03/15 08:33:12;;;;;;;17.13;5.68;;;;;;;5.81;100.00;101523.22;5030018;28;20027;-60
2022/03/15 08:35:37;;;;;;;14.23;5.80;;;;;;;5.99;100.00;101510.22;5027684;28;20126;-61
2022/03/15 08:38:02;;;;;;;7.50;4.35;;;;;;;6.24;100.00;101493.09;5035201;28;20032;-59
2022/03/15 08:40:28;;;;;;;9.93;5.53;;;;;;;6.52;100.00;101484.34;5039380;28;20612;-58
2022/03/15 08:42:53;;;;;;;7.57;3.88;;;;;;;6.84;100.00;101469.19;5030994;28;20118;-58
2022/03/15 08:45:18;;;;;;;10.65;3.75;;;;;;;7.18;100.00;101467.69;5036333;28;20033;-59
2022/03/15 08:47:45;;;;;;;13.00;2.72;;;;;;;7.90;100.00;101452.03;5037459;28;20386;-59
2022/03/15 08:50:10;;;;;;;7.65;3.15;;;;;;;8.34;100.00;101435.41;5032565;28;20135;-58
2022/03/15 08:52:36;;;;;;;10.10;2.22;;;;;;;8.23;100.00;101432.03;5028343;28;20037;-57
2022/03/15 08:55:02;;;;;;;11.60;2.80;;;;;;;8.11;100.00;101424.50;5036699;28;20083;-59
2022/03/15 08:57:28;;;;;;;7.38;3.53;;;;;;;8.11;100.00;101427.97;5030396;28;20036;-60
2022/03/15 08:59:54;;;;;;;12.73;3.35;;;;;;;8.16;100.00;101412.50;5029226;28;20029;-57
2022/03/15 09:02:20;;;;;;;12.38;3.55;;;;;;;8.25;100.00;101423.94;5033534;28;20538;-59
2022/03/15 09:04:46;;;;;;;13.23;4.55;;;;;;;8.38;100.00;101424.38;5027089;28;20037;-60
2022/03/15 09:07:11;;;;;;;9.20;2.58;;;;;;;8.54;100.00;101423.69;5028981;28;20030;-59
2022/03/15 09:09:37;;;;;;;6.22;2.80;;;;;;;8.71;100.00;101420.19;5036783;28;20234;-61
2022/03/15 09:12:03;;;;;;;8.80;2.85;;;;;;;8.85;100.00;101417.94;5030997;28;20065;-59
2022/03/15 09:14:29;;;;;;;4.18;1.98;;;;;;;9.11;100.00;101415.28;5029775;28;20025;-63
2022/03/15 09:16:54;;;;;;;7.78;2.63;;;;;;;9.33;100.00;101422.66;5034138;28;20026;-61
2022/03/15 09:19:20;;;;;;;8.82;2.88;;;;;;;9.37;100.00;101416.06;5027823;28;20455;-62
2022/03/15 09:21:46;;;;;;;11.73;2.28;;;;;;;9.47;100.00;101418.56;5028535;28;20025;-61
2022/03/15 09:24:11;;;;;;;9.57;2.72;;;;;;;9.59;100.00;101417.28;5031656;28;20060;-61
2022/03/15 09:26:37;;;;;;;5.10;2.15;;;;;;;9.63;100.00;101420.44;5035206;28;20095;-62
2022/03/15 09:29:03;;;;;;;13.80;2.95;;;;;;;9.68;100.00;101412.84;5033064;28;20090;-61
2022/03/15 09:31:28;;;;;;;5.82;2.22;;;;;;;9.72;100.00;101416.81;5027427;28;20029;-62
2022/03/15 09:33:54;;;;;;;4.22;2.33;;;;;;;9.81;100.00;101412.38;5031781;28;20032;-60
2022/03/15 09:36:19;;;;;;;6.60;2.45;;;;;;;9.85;100.00;101408.38;5028920;28;20569;-61
2022/03/15 09:38:44;;;;;;;5.30;1.67;;;;;;;9.91;100.00;101413.00;5027181;28;20033;-61
2022/03/15 09:41:10;;;;;;;2.70;1.92;;;;;;;9.97;100.00;101407.09;5029613;28;20029;-62
2022/03/15 09:43:39;;;;;;;3.45;2.13;;;;;;;10.07;100.00;101398.97;5032427;28;20065;-60
2022/03/15 09:46:05;;;;;;;12.77;3.25;;;;;;;10.20;100.00;101386.06;5025633;28;20026;-61
2022/03/15 09:48:31;;;;;;;10.00;3.33;;;;;;;10.34;100.00;101381.09;5029241;28;20037;-60
2022/03/15 09:50:56;;;;;;;10.30;2.50;;;;;;;10.52;100.00;101384.38;5028677;28;20473;-62
2022/03/15 09:53:22;;;;;;;10.38;2.58;;;;;;;10.76;100.00;101383.50;5029146;28;20089;-61
2022/03/15 09:55:48;;;;;;;9.85;3.25;;;;;;;11.00;100.00;101377.31;5023021;28;20037;-62
2022/03/15 09:58:18;;;;;;;4.68;2.75;;;;;;;11.26;100.00;101381.50;5027365;28;20288;-62
2022/03/15 10:00:44;;;;;;;6.07;1.92;;;;;;;11.29;100.00;101389.13;5035072;28;20033;-61
2022/03/15 10:03:09;;;;;;;9.27;2.50;;;;;;;11.42;100.00;101383.25;5030155;28;20033;-62
2022/03/15 10:05:36;;;;;;;7.32;2.70;;;;;;;11.55;100.00;101379.00;5029283;28;20128;-64
2022/03/15 10:08:02;;;;;;;6.63;2.30;;;;;;;11.72;100.00;101376.22;5030753;28;20041;-63
2022/03/15 10:10:28;;;;;;;9.75;3.03;;;;;;;11.88;100.00;101376.16;5032669;28;20021;-63
2022/03/15 10:12:54;;;;;;;10.43;3.00;;;;;;;12.03;100.00;101380.69;5032806;28;20544;-63
2022/03/15 10:15:22;;;;;;;7.53;2.22;;;;;;;12.16;100.00;101372.97;5033170;28;20029;-64
2022/03/15 10:21:09;;;;;;;4.93;1.83;;;;;;;12.44;100.00;101349.22;5027680;28;20078;-63
2022/03/15 10:23:38;;;;;;;4.90;2.03;;;;;;;12.41;100.00;101344.28;5037299;28;20398;-64
2022/03/15 10:26:04;;;;;;;9.85;2.05;;;;;;;12.27;100.00;101337.94;5036727;28;20064;-63
2022/03/15 10:28:31;;;;;;;7.13;2.22;;;;;;;12.23;100.00;101332.16;5038328;28;20560;-63
2022/03/15 10:30:57;;;;;;;5.20;1.40;;;;;;;12.22;100.00;101335.00;5044388;28;20036;-63
2022/03/15 10:33:23;;;;;;;6.32;1.65;;;;;;;12.23;100.00;101337.47;5049445;28;20029;-61
2022/03/15 10:35:49;;;;;;;4.35;2.65;;;;;;;12.27;100.00;101337.13;5038536;28;20107;-64
2022/03/15 10:38:15;;;;;;;8.13;3.15;;;;;;;12.29;100.00;101330.63;5034652;28;20104;-63
2022/03/15 10:40:46;;;;;;;7.97;1.70;;;;;;;12.35;100.00;101331.72;5034330;28;20044;-64
2022/03/15 10:43:14;;;;;;;6.13;1.35;;;;;;;12.46;100.00;101335.78;5036632;28;20041;-64
2022/03/15 10:45:44;;;;;;;5.38;2.45;;;;;;;12.51;100.00;101338.72;5032903;28;20029;-64
2022/03/15 10:48:20;;;;;;;7.72;2.55;;;;;;;12.58;100.00;101331.66;5030812;28;20037;-64
2022/03/15 10:50:50;;;;;;;9.45;2.25;;;;;;;12.79;100.00;101338.91;5038746;28;20090;-64
2022/03/15 10:53:16;;;;;;;5.72;1.45;;;;;;;12.94;100.00;101328.25;5039047;28;20052;-62
2022/03/15 10:55:41;;;;;;;4.78;1.88;;;;;;;13.25;100.00;101325.31;5040413;28;20028;-64
2022/03/15 10:58:09;;;;;;;5.38;2.05;;;;;;;13.31;100.00;101314.75;5028169;28;20044;-64
2022/03/15 11:00:36;;;;;;;8.18;1.88;;;;;;;13.34;100.00;101326.06;5030937;28;20429;-64
2022/03/15 11:03:05;;;;;;;3.53;0.82;;;;;;;13.26;100.00;101330.47;5042418;28;20057;-64
2022/03/15 11:05:37;;;;;;;4.30;1.23;;;;;;;13.18;100.00;101324.41;5040035;28;20033;-64
2022/03/15 11:08:03;;;;;;;;;;;;;;;13.15;100.00;101319.47;5028168;28;20052;-63
2022/03/15 11:10:28;;;;;;;4.20;0.85;;;;;;;12.96;100.00;101315.53;5037043;28;20385;-62
2022/03/15 11:13:02;;;;;;;3.47;0.80;;;;;;;12.86;100.00;101316.69;5036159;28;20033;-64
2022/03/15 11:15:30;;;;;;;1.17;0.70;;;;;;;12.86;100.00;101310.53;5035053;28;20406;-64
2022/03/15 11:18:01;;;;;;;3.30;1.20;;;;;;;12.78;100.00;101310.63;5029983;28;20201;-63
2022/03/15 11:20:28;;;;;;;;;;;;;;;12.70;100.00;101308.91;5036312;28;21151;-61